createdAt,value
2019-06-26T00:01:53.905Z,8.10
2019-06-26T00:04:21.364Z,7.47
2019-06-26T00:06:48.795Z,7.83
2019-06-26T00:09:16.242Z,7.50
2019-06-26T00:11:43.618Z,7.53
2019-06-26T00:14:10.913Z,7.53
2019-06-26T00:16:38.382Z,7.80
2019-06-26T00:19:05.683Z,7.63
2019-06-26T00:21:33.029Z,7.70
2019-06-26T00:24:00.291Z,8.00
2019-06-26T00:26:27.627Z,7.23
2019-06-26T00:28:54.886Z,7.93
2019-06-26T00:31:22.515Z,8.57
2019-06-26T00:33:49.838Z,7.97
2019-06-26T00:36:17.136Z,8.60
2019-06-26T00:38:44.463Z,8.10
2019-06-26T00:41:11.730Z,7.47
2019-06-26T00:43:42.622Z,7.80
2019-06-26T00:46:08.251Z,8.13
2019-06-26T00:48:35.642Z,8.40
2019-06-26T00:51:02.919Z,7.83
2019-06-26T00:53:30.208Z,8.27
2019-06-26T00:55:57.492Z,7.90
2019-06-26T00:58:24.904Z,8.67
2019-06-26T01:00:55.116Z,8.80
2019-06-26T01:03:22.583Z,8.97
2019-06-26T01:05:49.847Z,8.67
2019-06-26T01:08:18.149Z,8.30
2019-06-26T01:10:45.459Z,8.90
2019-06-26T01:13:12.803Z,9.33
2019-06-26T01:15:40.332Z,8.50
2019-06-26T01:18:07.680Z,9.50
2019-06-26T01:20:35.015Z,9.30
2019-06-26T01:23:02.389Z,10.37
2019-06-26T01:25:29.654Z,9.73
2019-06-26T01:27:57.106Z,10.10
2019-06-26T01:30:24.636Z,10.30
2019-06-26T01:32:52.008Z,10.13
2019-06-26T01:35:19.392Z,9.93
2019-06-26T01:37:46.693Z,9.90
2019-06-26T01:40:14.047Z,10.03
2019-06-26T01:42:41.361Z,10.07
2019-06-26T01:45:08.809Z,9.97
2019-06-26T01:47:36.090Z,10.47
2019-06-26T01:50:03.617Z,10.47
2019-06-26T01:52:30.968Z,11.03
2019-06-26T01:54:58.237Z,11.30
2019-06-26T01:57:25.544Z,10.73
2019-06-26T01:59:52.892Z,10.40
2019-06-26T02:02:20.146Z,10.43
2019-06-26T02:04:47.427Z,10.57
2019-06-26T02:07:14.670Z,10.90
2019-06-26T02:09:41.923Z,10.77
2019-06-26T02:12:09.170Z,10.57
2019-06-26T02:14:36.567Z,11.47
2019-06-26T02:17:03.823Z,11.93
2019-06-26T02:19:31.201Z,11.93
2019-06-26T02:21:58.433Z,11.43
2019-06-26T02:24:25.931Z,12.70
2019-06-26T02:26:53.210Z,11.03
2019-06-26T02:29:20.525Z,12.50
2019-06-26T02:31:47.799Z,12.43
2019-06-26T02:34:15.044Z,12.23
2019-06-26T02:36:42.308Z,12.03
2019-06-26T02:39:09.589Z,13.13
2019-06-26T02:41:36.947Z,12.40
2019-06-26T02:44:04.343Z,13.10
2019-06-26T02:46:31.676Z,13.47
2019-06-26T02:48:59.036Z,13.40
2019-06-26T02:51:26.276Z,13.60
2019-06-26T02:53:53.561Z,14.40
2019-06-26T02:56:20.920Z,13.40
2019-06-26T02:58:48.226Z,13.87
2019-06-26T03:01:15.683Z,13.90
2019-06-26T03:03:43.074Z,13.87
2019-06-26T03:06:10.360Z,12.90
2019-06-26T03:08:37.847Z,13.30
2019-06-26T03:11:05.252Z,13.07
2019-06-26T03:13:32.661Z,13.50
2019-06-26T03:16:00.081Z,13.83
2019-06-26T03:18:27.325Z,14.07
2019-06-26T03:20:54.975Z,14.93
2019-06-26T03:23:22.242Z,15.33
2019-06-26T03:25:49.511Z,15.57
2019-06-26T03:28:16.849Z,15.33
2019-06-26T03:30:44.445Z,14.97
2019-06-26T03:33:11.876Z,15.87
2019-06-26T03:35:40.843Z,14.67
2019-06-26T03:38:09.543Z,15.67
2019-06-26T03:40:37.088Z,15.80
2019-06-26T03:43:04.397Z,15.73
2019-06-26T03:45:31.743Z,16.07
2019-06-26T03:47:59.080Z,15.27
2019-06-26T03:50:26.463Z,16.30
2019-06-26T03:52:53.860Z,16.43
2019-06-26T03:55:21.116Z,15.70
2019-06-26T03:57:48.425Z,16.10
2019-06-26T04:00:21.527Z,15.97
2019-06-26T04:02:48.782Z,16.90
2019-06-26T04:05:16.026Z,16.53
2019-06-26T04:07:43.284Z,16.43
2019-06-26T04:10:11.085Z,16.97
2019-06-26T04:12:38.463Z,17.37
2019-06-26T04:15:06.031Z,17.33
2019-06-26T04:17:33.402Z,17.13
2019-06-26T04:20:00.672Z,17.30
2019-06-26T04:22:27.990Z,17.20
2019-06-26T04:24:56.243Z,19.93
2019-06-26T04:27:23.516Z,18.73
2019-06-26T04:29:50.796Z,18.53
2019-06-26T04:32:18.077Z,19.90
2019-06-26T04:34:45.442Z,19.47
2019-06-26T04:37:12.731Z,19.87
2019-06-26T04:39:40.015Z,20.23
2019-06-26T04:42:07.265Z,20.03
2019-06-26T04:44:34.783Z,20.30
2019-06-26T04:47:02.091Z,19.47
2019-06-26T04:49:29.386Z,18.77
2019-06-26T04:51:57.651Z,18.87
2019-06-26T04:54:25.004Z,18.60
2019-06-26T04:56:52.415Z,18.17
2019-06-26T04:59:21.550Z,18.50
2019-06-26T05:01:50.370Z,19.07
2019-06-26T05:04:21.156Z,18.57
2019-06-26T05:06:48.448Z,19.30
2019-06-26T05:09:15.688Z,18.70
2019-06-26T05:11:43.096Z,19.40
2019-06-26T05:14:10.350Z,18.67
2019-06-26T05:16:37.685Z,19.23
2019-06-26T05:19:04.951Z,19.37
2019-06-26T05:21:32.169Z,19.57
2019-06-26T05:23:59.463Z,19.07
2019-06-26T05:26:26.708Z,18.70
2019-06-26T05:28:54.055Z,19.53
2019-06-26T05:31:21.334Z,18.00
2019-06-26T05:33:48.547Z,18.50
2019-06-26T05:36:15.866Z,18.27
2019-06-26T05:38:43.128Z,17.80
2019-06-26T05:41:10.398Z,16.53
2019-06-26T05:43:37.639Z,17.20
2019-06-26T05:46:04.851Z,16.80
2019-06-26T05:48:32.271Z,16.70
2019-06-26T05:50:59.727Z,19.33
2019-06-26T05:53:26.977Z,18.37
2019-06-26T05:55:54.209Z,18.90
2019-06-26T05:58:21.729Z,18.00
2019-06-26T06:00:49.142Z,19.07
2019-06-26T06:03:16.378Z,20.00
2019-06-26T06:05:43.614Z,21.10
2019-06-26T06:08:10.806Z,21.63
2019-06-26T06:10:38.061Z,20.87
2019-06-26T06:13:05.271Z,21.13
2019-06-26T06:15:33.482Z,19.80
2019-06-26T06:18:00.718Z,21.60
2019-06-26T06:20:35.604Z,21.60
2019-06-26T06:23:02.827Z,22.23
2019-06-26T06:25:30.036Z,21.43
2019-06-26T06:27:57.271Z,22.60
2019-06-26T06:30:24.500Z,21.13
2019-06-26T06:32:51.755Z,20.87
2019-06-26T06:35:18.959Z,20.90
2019-06-26T06:37:46.155Z,20.87
2019-06-26T06:40:13.498Z,20.17
2019-06-26T06:42:40.716Z,20.50
2019-06-26T06:45:10.193Z,19.43
2019-06-26T06:47:37.402Z,21.10
2019-06-26T06:50:05.029Z,20.33
2019-06-26T06:52:32.289Z,20.73
2019-06-26T06:54:59.961Z,19.87
2019-06-26T06:57:27.444Z,19.47
2019-06-26T06:59:54.691Z,21.77
2019-06-26T07:02:22.093Z,21.77
2019-06-26T07:04:49.336Z,20.80
2019-06-26T07:07:16.822Z,20.67
2019-06-26T07:09:44.128Z,20.07
2019-06-26T07:12:11.440Z,19.07
2019-06-26T07:14:38.912Z,19.87
2019-06-26T07:17:19.208Z,19.43
2019-06-26T07:19:35.332Z,20.87
2019-06-26T07:22:02.586Z,19.87
2019-06-26T07:24:30.179Z,17.40
2019-06-26T07:26:57.574Z,18.97
2019-06-26T07:29:24.853Z,18.97
2019-06-26T07:31:52.158Z,18.50
2019-06-26T07:34:19.606Z,18.87
2019-06-26T07:36:47.029Z,15.70
2019-06-26T07:39:14.349Z,16.93
2019-06-26T07:41:41.643Z,16.13
2019-06-26T07:44:08.955Z,14.90
2019-06-26T07:46:36.239Z,15.30
2019-06-26T07:49:03.501Z,14.27
2019-06-26T07:51:30.757Z,13.90
2019-06-26T07:53:58.038Z,13.80
2019-06-26T07:56:25.315Z,13.87
2019-06-26T07:58:52.620Z,14.37
2019-06-26T08:01:19.843Z,14.70
2019-06-26T08:03:47.080Z,13.23
2019-06-26T08:06:14.292Z,12.63
2019-06-26T08:08:41.500Z,13.63
2019-06-26T08:11:08.780Z,13.83
2019-06-26T08:13:36.043Z,11.37
2019-06-26T08:16:03.335Z,11.67
2019-06-26T08:18:30.591Z,12.53
2019-06-26T08:21:11.537Z,12.53
2019-06-26T08:23:27.182Z,12.40
2019-06-26T08:25:54.503Z,12.13
2019-06-26T08:28:21.746Z,14.00
2019-06-26T08:30:49.076Z,13.13
2019-06-26T08:33:16.406Z,14.90
2019-06-26T08:35:43.659Z,15.90
2019-06-26T08:38:15.354Z,13.57
2019-06-26T08:40:40.163Z,13.83
2019-06-26T08:43:07.410Z,13.93
2019-06-26T08:45:34.665Z,14.13
2019-06-26T08:48:16.797Z,13.90
2019-06-26T08:50:32.141Z,12.83
2019-06-26T08:52:59.421Z,13.22
2019-06-26T08:55:26.667Z,13.63
2019-06-26T08:57:53.939Z,13.03
2019-06-26T09:00:21.445Z,12.60
2019-06-26T09:02:48.709Z,13.03
2019-06-26T09:05:16.129Z,13.53
2019-06-26T09:07:43.423Z,13.07
2019-06-26T09:10:10.678Z,12.27
2019-06-26T09:12:38.083Z,12.10
2019-06-26T09:15:05.448Z,13.33
2019-06-26T09:17:32.848Z,12.43
2019-06-26T09:20:00.128Z,11.68
2019-06-26T09:22:27.418Z,11.17
2019-06-26T09:24:54.712Z,12.00
2019-06-26T09:27:21.970Z,12.30
2019-06-26T09:29:49.249Z,11.73
2019-06-26T09:32:20.069Z,11.40
2019-06-26T09:34:47.385Z,11.10
2019-06-26T09:37:14.649Z,9.90
2019-06-26T09:39:41.938Z,10.53
2019-06-26T09:42:09.174Z,11.03
2019-06-26T09:44:36.496Z,9.13
2019-06-26T09:47:04.786Z,8.80
2019-06-26T09:49:32.047Z,9.80
2019-06-26T09:51:59.328Z,10.38
2019-06-26T09:54:26.620Z,9.50
2019-06-26T09:56:53.896Z,8.88
2019-06-26T09:59:21.192Z,8.98
2019-06-26T10:01:48.499Z,7.55
2019-06-26T10:04:15.758Z,7.45
2019-06-26T10:06:43.327Z,7.50
2019-06-26T10:09:11.708Z,7.67
2019-06-26T10:11:39.005Z,7.60
2019-06-26T10:14:06.413Z,6.97
2019-06-26T10:16:33.860Z,6.85
2019-06-26T10:19:10.020Z,6.40
2019-06-26T10:21:30.326Z,6.12
2019-06-26T10:23:57.603Z,6.10
2019-06-26T10:26:24.877Z,6.30
2019-06-26T10:28:52.495Z,6.35
2019-06-26T10:31:19.780Z,5.37
2019-06-26T10:33:47.057Z,6.00
2019-06-26T10:36:14.303Z,6.00
2019-06-26T10:38:41.601Z,5.55
2019-06-26T10:41:08.857Z,5.90
2019-06-26T10:43:36.120Z,5.87
2019-06-26T10:46:03.600Z,6.40
2019-06-26T10:48:30.995Z,6.58
2019-06-26T10:50:59.143Z,6.80
2019-06-26T10:53:27.047Z,5.90
2019-06-26T10:55:54.439Z,5.90
2019-06-26T10:58:22.486Z,5.42
2019-06-26T11:00:51.621Z,5.65
2019-06-26T11:03:19.459Z,5.83
2019-06-26T11:05:47.438Z,5.78
2019-06-26T11:08:14.873Z,5.53
2019-06-26T11:10:42.229Z,5.47
2019-06-26T11:13:09.520Z,5.17
2019-06-26T11:15:36.866Z,5.20
2019-06-26T11:18:04.564Z,5.70
2019-06-26T11:20:32.254Z,5.75
2019-06-26T11:22:59.928Z,4.83
2019-06-26T11:25:27.321Z,5.92
2019-06-26T11:27:54.743Z,6.25
2019-06-26T11:30:22.934Z,6.20
2019-06-26T11:32:50.516Z,5.80
2019-06-26T11:35:17.945Z,5.42
2019-06-26T11:37:45.411Z,5.90
2019-06-26T11:40:13.531Z,6.40
2019-06-26T11:42:40.817Z,5.60
2019-06-26T11:45:09.885Z,5.62
2019-06-26T11:47:37.478Z,5.62
2019-06-26T11:50:05.143Z,5.72
2019-06-26T11:52:32.563Z,5.80
2019-06-26T11:55:08.156Z,6.33
2019-06-26T11:57:35.490Z,6.10
2019-06-26T12:00:03.707Z,6.65
2019-06-26T12:02:31.059Z,6.30
2019-06-26T12:04:58.393Z,7.25
2019-06-26T12:07:25.670Z,7.15
2019-06-26T12:09:53.151Z,7.20
2019-06-26T12:12:20.524Z,6.80
2019-06-26T12:14:47.791Z,5.87
2019-06-26T12:17:15.098Z,7.15
2019-06-26T12:19:42.438Z,6.45
2019-06-26T12:22:09.679Z,7.55
2019-06-26T12:24:37.110Z,7.87
2019-06-26T12:27:05.758Z,8.70
2019-06-26T12:29:35.093Z,9.38
2019-06-26T12:32:03.114Z,9.30
2019-06-26T12:34:30.780Z,10.00
2019-06-26T12:36:58.100Z,9.55
2019-06-26T12:39:25.372Z,10.40
2019-06-26T12:41:52.660Z,10.28
2019-06-26T12:44:20.032Z,10.32
2019-06-26T12:46:47.402Z,10.58
2019-06-26T12:49:14.737Z,10.55
2019-06-26T12:51:42.009Z,11.65
2019-06-26T12:54:09.282Z,11.97
2019-06-26T12:56:36.529Z,11.63
2019-06-26T12:59:03.826Z,12.70
2019-06-26T13:01:31.096Z,13.40
2019-06-26T13:03:58.427Z,13.30
2019-06-26T13:06:25.664Z,12.60
2019-06-26T13:08:52.942Z,14.15
2019-06-26T13:11:20.225Z,13.60
2019-06-26T13:14:01.478Z,16.40
2019-06-26T13:16:16.655Z,14.87
2019-06-26T13:18:43.918Z,15.20
2019-06-26T13:21:11.220Z,15.32
2019-06-26T13:23:38.647Z,16.27
2019-06-26T13:26:05.998Z,15.40
2019-06-26T13:28:33.296Z,16.40
2019-06-26T13:31:00.629Z,15.38
2019-06-26T13:33:27.907Z,13.78
2019-06-26T13:35:55.202Z,14.33
2019-06-26T13:38:22.469Z,14.47
2019-06-26T13:40:49.693Z,13.03
2019-06-26T13:43:17.054Z,13.13
2019-06-26T13:45:44.326Z,11.55
2019-06-26T13:48:11.579Z,10.88
2019-06-26T13:50:39.006Z,9.58
2019-06-26T13:53:06.266Z,10.98
2019-06-26T13:55:33.531Z,10.05
2019-06-26T13:58:00.772Z,10.10
2019-06-26T14:00:28.048Z,10.32
2019-06-26T14:02:55.279Z,8.63
2019-06-26T14:05:22.564Z,9.43
2019-06-26T14:07:49.848Z,9.03
2019-06-26T14:10:17.309Z,9.15
2019-06-26T14:12:44.609Z,8.73
2019-06-26T14:15:12.595Z,8.78
2019-06-26T14:17:39.841Z,8.18
2019-06-26T14:20:07.563Z,7.80
2019-06-26T14:22:34.969Z,7.40
2019-06-26T14:25:02.251Z,7.30
2019-06-26T14:27:30.604Z,6.60
2019-06-26T14:29:57.861Z,6.17
2019-06-26T14:32:25.179Z,5.47
2019-06-26T14:34:52.410Z,6.35
2019-06-26T14:37:19.690Z,5.20
2019-06-26T14:39:46.970Z,4.50
2019-06-26T14:42:14.339Z,5.10
2019-06-26T14:44:41.788Z,7.53
2019-06-26T14:47:09.066Z,4.70
2019-06-26T14:49:36.276Z,4.83
2019-06-26T14:52:03.847Z,4.45
2019-06-26T14:54:31.207Z,4.60
2019-06-26T14:56:58.535Z,4.75
2019-06-26T14:59:25.854Z,4.80
2019-06-26T15:01:53.149Z,4.60
2019-06-26T15:04:20.374Z,4.53
2019-06-26T15:06:47.842Z,4.70
2019-06-26T15:09:15.098Z,4.78
2019-06-26T15:11:42.347Z,4.80
2019-06-26T15:14:09.644Z,5.55
2019-06-26T15:16:36.895Z,4.70
2019-06-26T15:19:04.266Z,5.05
2019-06-26T15:21:31.524Z,5.03
2019-06-26T15:23:58.842Z,5.25
2019-06-26T15:26:26.084Z,5.33
2019-06-26T15:28:53.382Z,5.25
2019-06-26T15:31:20.667Z,5.75
2019-06-26T15:33:47.954Z,5.40
2019-06-26T15:36:15.212Z,5.70
2019-06-26T15:38:42.510Z,5.15
2019-06-26T15:41:09.961Z,5.35
2019-06-26T15:43:37.324Z,5.90
2019-06-26T15:46:04.898Z,6.03
2019-06-26T15:48:32.241Z,6.12
2019-06-26T15:50:59.535Z,5.78
2019-06-26T15:53:26.799Z,5.90
2019-06-26T15:55:54.100Z,6.97
2019-06-26T15:58:21.333Z,7.10
2019-06-26T16:00:48.659Z,7.67
2019-06-26T16:03:16.115Z,7.12
2019-06-26T16:05:43.371Z,6.92
2019-06-26T16:08:10.622Z,7.33
2019-06-26T16:10:37.881Z,7.67
2019-06-26T16:13:05.138Z,7.45
2019-06-26T16:15:33.003Z,6.78
2019-06-26T16:18:08.628Z,6.83
2019-06-26T16:20:36.054Z,7.30
2019-06-26T16:23:03.357Z,7.00
2019-06-26T16:25:30.637Z,6.50
2019-06-26T16:28:05.277Z,6.83
2019-06-26T16:30:27.145Z,6.90
2019-06-26T16:32:56.987Z,6.50
2019-06-26T16:35:25.588Z,6.83
2019-06-26T16:37:52.974Z,6.40
2019-06-26T16:40:20.260Z,6.50
2019-06-26T16:42:47.509Z,6.28
2019-06-26T16:45:16.037Z,6.67
2019-06-26T16:47:43.300Z,6.47
2019-06-26T16:50:10.617Z,6.40
2019-06-26T16:52:48.617Z,6.20
2019-06-26T16:55:07.134Z,6.90
2019-06-26T16:57:35.520Z,7.10
2019-06-26T17:00:09.642Z,6.00
2019-06-26T17:02:33.417Z,6.80
2019-06-26T17:05:00.889Z,6.50
2019-06-26T17:07:28.304Z,6.53
2019-06-26T17:09:55.535Z,6.63
2019-06-26T17:12:22.828Z,6.37
2019-06-26T17:14:50.276Z,6.10
2019-06-26T17:17:17.546Z,6.50
2019-06-26T17:19:44.867Z,5.97
2019-06-26T17:22:12.094Z,5.53
2019-06-26T17:24:39.671Z,6.17
2019-06-26T17:27:07.950Z,6.33
2019-06-26T17:29:35.188Z,6.03
2019-06-26T17:32:02.456Z,6.27
2019-06-26T17:34:29.941Z,6.33
2019-06-26T17:36:57.271Z,5.73
2019-06-26T17:39:24.502Z,5.70
2019-06-26T17:41:52.014Z,5.70
2019-06-26T17:44:19.548Z,6.30
2019-06-26T17:46:46.822Z,6.47
2019-06-26T17:49:14.076Z,5.77
2019-06-26T17:51:41.281Z,5.90
2019-06-26T17:54:08.578Z,5.87
2019-06-26T17:56:35.831Z,5.90
2019-06-26T17:59:03.096Z,5.70
2019-06-26T18:01:30.338Z,6.00
2019-06-26T18:03:57.651Z,6.20
2019-06-26T18:06:25.113Z,5.67
2019-06-26T18:08:52.434Z,6.30
2019-06-26T18:11:19.717Z,5.93
2019-06-26T18:13:46.970Z,6.63
2019-06-26T18:16:14.225Z,6.33
2019-06-26T18:18:41.438Z,5.97
2019-06-26T18:21:08.705Z,6.20
2019-06-26T18:23:38.487Z,6.27
2019-06-26T18:26:12.888Z,6.40
2019-06-26T18:28:35.526Z,6.10
2019-06-26T18:31:02.788Z,6.97
2019-06-26T18:33:30.102Z,6.97
2019-06-26T18:35:57.399Z,6.40
2019-06-26T18:38:24.839Z,6.60
2019-06-26T18:40:52.216Z,6.97
2019-06-26T18:43:19.483Z,6.70
2019-06-26T18:45:46.971Z,6.20
2019-06-26T18:48:14.425Z,6.40
2019-06-26T18:50:41.956Z,6.40
2019-06-26T18:53:09.570Z,6.60
2019-06-26T18:55:37.159Z,6.60
2019-06-26T18:58:04.538Z,6.50
2019-06-26T19:00:32.155Z,6.70
2019-06-26T19:02:59.477Z,6.20
2019-06-26T19:05:26.863Z,6.17
2019-06-26T19:07:54.275Z,5.70
2019-06-26T19:10:21.522Z,6.07
2019-06-26T19:12:48.825Z,6.00
2019-06-26T19:15:16.109Z,5.53
2019-06-26T19:17:43.427Z,5.00
2019-06-26T19:20:10.933Z,5.37
2019-06-26T19:22:38.354Z,5.03
2019-06-26T19:25:06.004Z,4.90
2019-06-26T19:27:33.268Z,4.90
2019-06-26T19:30:00.557Z,5.27
2019-06-26T19:32:29.194Z,4.93
2019-06-26T19:34:56.441Z,4.50
2019-06-26T19:37:23.670Z,5.00
2019-06-26T19:39:50.960Z,4.53
2019-06-26T19:42:18.203Z,5.27
2019-06-26T19:44:45.469Z,4.43
2019-06-26T19:47:12.723Z,4.53
2019-06-26T19:49:39.985Z,4.60
2019-06-26T19:52:08.305Z,4.67
2019-06-26T19:54:36.257Z,5.03
2019-06-26T19:57:03.578Z,5.03
2019-06-26T19:59:30.863Z,5.00
2019-06-26T20:01:58.117Z,5.00
2019-06-26T20:04:25.367Z,4.67
2019-06-26T20:06:52.686Z,4.73
2019-06-26T20:09:19.967Z,5.23
2019-06-26T20:11:47.259Z,5.20
2019-06-26T20:14:15.548Z,5.10
2019-06-26T20:16:42.870Z,5.47
2019-06-26T20:19:10.219Z,5.10
2019-06-26T20:21:37.511Z,5.30
2019-06-26T20:24:04.759Z,6.27
2019-06-26T20:26:32.092Z,5.80
2019-06-26T20:28:59.319Z,5.70
2019-06-26T20:31:26.599Z,5.87
2019-06-26T20:33:53.889Z,5.80
2019-06-26T20:36:21.188Z,5.77
2019-06-26T20:38:48.444Z,5.40
2019-06-26T20:41:15.701Z,5.57
2019-06-26T20:43:42.970Z,5.60
2019-06-26T20:46:10.250Z,5.30
2019-06-26T20:48:37.564Z,5.30
2019-06-26T20:51:04.819Z,5.37
2019-06-26T20:53:33.102Z,5.10
2019-06-26T20:56:00.372Z,5.00
2019-06-26T20:58:27.746Z,5.00
2019-06-26T21:00:55.065Z,4.93
2019-06-26T21:03:22.357Z,5.27
2019-06-26T21:05:49.616Z,4.93
2019-06-26T21:08:16.926Z,4.97
2019-06-26T21:10:44.372Z,5.17
2019-06-26T21:13:11.718Z,5.73
2019-06-26T21:15:38.963Z,5.40
2019-06-26T21:18:06.382Z,5.53
2019-06-26T21:20:33.633Z,5.97
2019-06-26T21:23:00.879Z,5.47
2019-06-26T21:25:28.148Z,6.43
2019-06-26T21:27:55.444Z,6.50
2019-06-26T21:30:22.714Z,7.50
2019-06-26T21:32:50.012Z,6.80
2019-06-26T21:35:17.267Z,7.77
2019-06-26T21:37:44.575Z,7.13
2019-06-26T21:40:11.932Z,8.23
2019-06-26T21:42:39.193Z,8.23
2019-06-26T21:45:07.350Z,6.73
2019-06-26T21:47:34.642Z,6.03
2019-06-26T21:50:01.945Z,5.77
2019-06-26T21:52:30.278Z,5.00
2019-06-26T21:54:57.515Z,5.10
2019-06-26T21:57:43.203Z,4.60
2019-06-26T22:00:30.299Z,4.83
2019-06-26T22:03:16.590Z,4.50
2019-06-26T22:05:45.731Z,5.07
2019-06-26T22:08:19.624Z,5.13
2019-06-26T22:10:50.639Z,4.77
2019-06-26T22:13:21.644Z,4.47
2019-06-26T22:15:50.922Z,4.50
2019-06-26T22:18:18.570Z,4.53
2019-06-26T22:20:45.976Z,4.60
2019-06-26T22:23:13.311Z,3.80
2019-06-26T22:25:50.428Z,3.60
2019-06-26T22:28:09.907Z,3.47
2019-06-26T22:30:37.294Z,3.50
2019-06-26T22:33:04.724Z,3.83
2019-06-26T22:35:32.021Z,3.40
2019-06-26T22:37:59.400Z,3.87
2019-06-26T22:40:26.767Z,3.63
2019-06-26T22:42:54.088Z,4.30
2019-06-26T22:45:21.388Z,4.20
2019-06-26T22:47:48.757Z,3.47
2019-06-26T22:50:16.137Z,4.03
2019-06-26T22:52:43.428Z,3.93
2019-06-26T22:55:10.749Z,4.07
2019-06-26T22:57:38.048Z,4.17
2019-06-26T23:00:05.776Z,4.20
2019-06-26T23:02:34.838Z,3.93
2019-06-26T23:05:02.168Z,4.10
2019-06-26T23:07:29.522Z,4.50
2019-06-26T23:09:56.780Z,4.13
2019-06-26T23:12:24.170Z,4.30
2019-06-26T23:14:51.393Z,4.27
2019-06-26T23:17:18.666Z,4.30
2019-06-26T23:19:45.925Z,4.20
2019-06-26T23:22:13.150Z,4.27
2019-06-26T23:24:40.438Z,4.17
2019-06-26T23:27:07.677Z,4.40
2019-06-26T23:29:34.960Z,4.47
2019-06-26T23:32:03.353Z,4.40
2019-06-26T23:34:30.890Z,5.00
2019-06-26T23:36:58.953Z,5.17
2019-06-26T23:39:26.194Z,5.30
2019-06-26T23:41:53.497Z,6.00
2019-06-26T23:44:20.743Z,6.00
2019-06-26T23:46:47.991Z,5.70
2019-06-26T23:49:15.246Z,5.83
2019-06-26T23:51:42.760Z,5.70
2019-06-26T23:54:10.123Z,6.33
2019-06-26T23:56:40.775Z,6.13
2019-06-26T23:59:06.695Z,7.00
